Time;durP1;ratioP1;P1;durP2;ratioP2;P2;SDS_P1;SDS_P2;PMS_P1;PMS_P2;Temp;Humidity;BMP_temperature;BMP_pressure;BME280_temperature;BME280_humidity;BME280_pressure;Samples;Min_cycle;Max_cycle;Signal;HPM_P1;HPM_P2
2022/06/30 00:00:33;;;;;;;10.00;4.47;;;14.00;70.90;;;;;;5070982;28;20274;-77
2022/06/30 00:03:00;;;;;;;10.77;5.23;;;14.20;70.20;;;;;;5076696;28;20190;-75
2022/06/30 00:05:28;;;;;;;7.40;4.50;;;14.10;69.50;;;;;;5052933;28;20547;-77
2022/06/30 00:07:56;;;;;;;7.77;4.10;;;14.10;69.60;;;;;;5056221;28;20537;-77
2022/06/30 00:10:24;;;;;;;8.63;4.30;;;14.10;69.50;;;;;;5065713;28;20195;-78
2022/06/30 00:12:51;;;;;;;6.30;3.70;;;14.10;68.90;;;;;;5051671;28;20226;-76
2022/06/30 00:15:20;;;;;;;10.33;3.97;;;14.00;68.70;;;;;;5051842;28;20176;-76
2022/06/30 00:17:47;;;;;;;6.20;4.00;;;14.00;68.90;;;;;;5057460;28;20286;-80
2022/06/30 00:20:15;;;;;;;8.43;3.70;;;14.10;68.60;;;;;;5064466;28;20299;-77
2022/06/30 00:22:42;;;;;;;6.07;3.20;;;14.10;68.80;;;;;;5061564;28;20535;-77
2022/06/30 00:25:10;;;;;;;5.20;3.00;;;14.20;68.60;;;;;;5051149;28;20234;-76
2022/06/30 00:27:37;;;;;;;4.40;3.10;;;14.30;65.70;;;;;;5048905;28;20575;-77
2022/06/30 00:30:05;;;;;;;8.37;3.40;;;14.60;65.60;;;;;;5053388;28;20275;-76
2022/06/30 00:32:33;;;;;;;6.33;2.90;;;14.80;64.50;;;;;;5071361;28;20175;-76
2022/06/30 00:35:01;;;;;;;6.37;3.47;;;14.90;63.90;;;;;;5057333;28;20186;-75
2022/06/30 00:37:29;;;;;;;4.20;2.30;;;15.10;63.30;;;;;;5071966;28;20179;-77
2022/06/30 00:39:56;;;;;;;6.10;2.10;;;15.20;60.40;;;;;;5062402;28;20301;-77
2022/06/30 00:42:24;;;;;;;6.30;2.20;;;15.20;59.20;;;;;;5065160;28;20179;-76
2022/06/30 00:44:51;;;;;;;6.17;2.03;;;15.30;59.10;;;;;;5064459;28;20217;-76
2022/06/30 00:47:19;;;;;;;4.73;2.30;;;15.40;59.00;;;;;;5076332;28;20231;-74
2022/06/30 00:49:46;;;;;;;5.23;1.90;;;15.60;58.60;;;;;;5068294;28;20649;-74
2022/06/30 00:52:16;;;;;;;6.23;2.00;;;15.70;57.00;;;;;;5058046;28;20184;-79
2022/06/30 00:54:45;;;;;;;4.93;2.10;;;15.80;57.40;;;;;;5068112;28;20172;-78
2022/06/30 00:57:13;;;;;;;3.70;1.67;;;15.90;57.30;;;;;;5060575;28;20244;-74
2022/06/30 00:59:45;;;;;;;2.87;1.70;;;15.70;56.00;;;;;;5059250;28;20228;-79
2022/06/30 01:02:13;;;;;;;5.80;1.63;;;15.50;56.20;;;;;;5060877;28;20195;-78
2022/06/30 01:04:42;;;;;;;7.10;1.90;;;15.60;57.10;;;;;;5053615;28;20180;-79
2022/06/30 01:07:11;;;;;;;4.23;1.60;;;15.70;56.50;;;;;;5071891;28;20213;-78
2022/06/30 01:15:13;;;;;;;5.83;2.30;;;16.00;56.20;;;;;;5060198;28;20191;-80
2022/06/30 01:17:41;;;;;;;5.67;2.03;;;16.30;55.60;;;;;;5054844;28;20203;-83
2022/06/30 01:20:09;;;;;;;2.87;1.83;;;16.40;55.10;;;;;;5068507;28;20199;-81
2022/06/30 01:22:37;;;;;;;4.40;1.67;;;16.80;54.10;;;;;;5074243;28;20265;-81
2022/06/30 01:25:06;;;;;;;4.20;2.00;;;16.90;53.10;;;;;;5067808;28;20194;-81
2022/06/30 01:27:33;;;;;;;4.33;1.93;;;16.80;53.20;;;;;;5066201;28;20258;-78
2022/06/30 01:30:01;;;;;;;1.70;1.40;;;16.90;53.30;;;;;;5063490;28;20185;-75
2022/06/30 01:32:30;;;;;;;3.67;1.93;;;16.90;53.10;;;;;;5072743;28;20262;-79
2022/06/30 01:34:58;;;;;;;3.40;1.60;;;17.00;53.20;;;;;;5063714;28;20175;-76
2022/06/30 01:37:26;;;;;;;4.70;1.33;;;16.80;51.80;;;;;;5073599;28;20273;-79
2022/06/30 01:39:54;;;;;;;5.10;1.60;;;16.70;52.50;;;;;;5072118;28;20209;-82
2022/06/30 01:42:21;;;;;;;2.10;1.63;;;16.70;52.90;;;;;;5054383;28;20501;-77
2022/06/30 01:44:49;;;;;;;4.17;2.00;;;16.70;53.60;;;;;;5054529;28;20182;-74
2022/06/30 01:47:16;;;;;;;2.43;1.50;;;16.70;53.20;;;;;;5054582;28;20642;-75
2022/06/30 01:49:44;;;;;;;2.43;1.50;;;16.80;53.00;;;;;;5055597;28;20241;-77
2022/06/30 01:52:11;;;;;;;3.17;1.33;;;16.70;52.80;;;;;;5065753;28;20177;-76
2022/06/30 01:54:38;;;;;;;3.70;1.67;;;16.60;53.50;;;;;;5067678;28;20201;-75
2022/06/30 01:57:06;;;;;;;2.50;1.20;;;16.60;53.80;;;;;;5057582;28;20173;-75
2022/06/30 01:59:33;;;;;;;5.57;1.33;;;16.70;53.60;;;;;;5056289;28;20291;-77
2022/06/30 02:02:01;;;;;;;3.50;1.47;;;16.90;53.20;;;;;;5054117;28;20183;-74
2022/06/30 02:07:23;;;;;;;4.13;1.60;;;17.30;51.80;;;;;;5071008;28;20718;-75
2022/06/30 02:09:51;;;;;;;1.73;1.20;;;17.00;52.10;;;;;;5058390;28;20232;-76
2022/06/30 02:15:07;;;;;;;2.43;1.27;;;17.00;52.00;;;;;;5054125;28;20586;-76
2022/06/30 02:17:35;;;;;;;3.50;1.83;;;17.00;52.90;;;;;;5053814;28;20265;-77
2022/06/30 02:20:03;;;;;;;4.10;1.47;;;16.80;52.20;;;;;;5054007;28;20750;-76
2022/06/30 02:22:31;;;;;;;3.17;1.40;;;16.80;53.00;;;;;;5065605;28;20190;-77
2022/06/30 02:25:03;;;;;;;4.93;1.20;;;16.80;53.20;;;;;;5071132;28;20640;-81
2022/06/30 02:28:00;;;;;;;3.00;1.57;;;16.80;53.60;;;;;;5084920;28;20298;-84
2022/06/30 02:30:28;;;;;;;3.50;1.33;;;16.90;52.90;;;;;;5059098;28;20237;-82
2022/06/30 02:32:56;;;;;;;7.20;1.43;;;17.20;52.30;;;;;;5073121;28;20683;-84
2022/06/30 02:35:28;;;;;;;3.73;1.23;;;17.60;52.10;;;;;;5064420;28;20641;-85
2022/06/30 02:37:57;;;;;;;2.13;1.20;;;17.50;51.70;;;;;;5064078;28;20698;-80
2022/06/30 02:40:25;;;;;;;3.07;1.40;;;17.50;51.60;;;;;;5069683;28;20183;-81
2022/06/30 02:42:55;;;;;;;2.07;1.50;;;17.30;51.80;;;;;;5063175;28;20244;-81
2022/06/30 02:45:26;;;;;;;5.37;1.60;;;17.50;52.40;;;;;;5072080;28;20245;-78
2022/06/30 02:47:55;;;;;;;1.90;1.30;;;17.70;51.60;;;;;;5068232;28;20229;-75
2022/06/30 02:50:27;;;;;;;3.33;1.30;;;17.80;51.20;;;;;;5072166;28;20275;-86
2022/06/30 02:53:01;;;;;;;1.47;1.37;;;18.00;51.10;;;;;;5071693;28;20201;-82
2022/06/30 02:55:32;;;;;;;3.03;1.57;;;18.00;50.60;;;;;;5067548;28;20194;-81
2022/06/30 02:57:59;;;;;;;4.90;1.50;;;17.90;50.80;;;;;;5066116;28;20219;-82
2022/06/30 03:00:29;;;;;;;2.73;1.80;;;17.80;50.90;;;;;;5069798;28;20218;-80
2022/06/30 03:02:59;;;;;;;1.90;1.27;;;17.80;51.20;;;;;;5067001;28;20317;-83
2022/06/30 03:05:27;;;;;;;2.13;1.30;;;17.80;51.50;;;;;;5070097;28;20233;-83
2022/06/30 03:07:54;;;;;;;4.07;1.30;;;17.80;51.90;;;;;;5071090;28;20225;-83
2022/06/30 03:10:22;;;;;;;2.10;1.70;;;17.80;51.90;;;;;;5069894;28;20273;-84
2022/06/30 03:12:49;;;;;;;2.13;1.20;;;17.70;51.40;;;;;;5051332;28;20630;-75
2022/06/30 03:15:17;;;;;;;1.90;1.53;;;17.70;51.60;;;;;;5062629;28;20190;-82
2022/06/30 03:17:44;;;;;;;2.83;1.90;;;17.60;51.80;;;;;;5053044;28;20281;-81
2022/06/30 03:20:12;;;;;;;3.93;1.70;;;17.70;52.60;;;;;;5062820;28;20196;-78
2022/06/30 03:22:39;;;;;;;2.60;1.20;;;17.60;52.10;;;;;;5071429;28;20210;-75
2022/06/30 03:25:07;;;;;;;5.30;1.60;;;17.60;52.30;;;;;;5068132;28;20180;-75
2022/06/30 03:27:35;;;;;;;2.50;1.40;;;17.50;52.90;;;;;;5068334;28;20227;-75
2022/06/30 03:30:02;;;;;;;3.37;1.30;;;17.60;52.60;;;;;;5072109;28;20178;-74
2022/06/30 03:32:30;;;;;;;5.20;1.60;;;17.50;53.00;;;;;;5070637;28;20262;-74
2022/06/30 03:34:57;;;;;;;2.77;1.40;;;17.50;53.80;;;;;;5050802;28;20181;-75
2022/06/30 03:37:24;;;;;;;4.20;1.13;;;17.50;54.20;;;;;;5053004;28;20191;-77
2022/06/30 03:39:52;;;;;;;2.43;1.10;;;17.50;54.40;;;;;;5053834;28;20214;-75
2022/06/30 03:42:19;;;;;;;2.37;1.10;;;17.40;54.80;;;;;;5068318;28;20649;-75
2022/06/30 03:44:47;;;;;;;9.50;1.67;;;17.50;54.80;;;;;;5070837;28;20713;-76
2022/06/30 03:47:14;;;;;;;1.87;1.00;;;17.50;54.60;;;;;;5072329;28;20715;-75
2022/06/30 03:49:42;;;;;;;5.07;1.70;;;17.50;54.90;;;;;;5067186;28;20213;-75
2022/06/30 03:52:09;;;;;;;6.13;1.40;;;17.50;54.70;;;;;;5054722;28;20175;-74
2022/06/30 03:54:38;;;;;;;3.63;1.30;;;17.50;54.80;;;;;;5055159;28;20277;-76
2022/06/30 03:57:06;;;;;;;4.90;1.20;;;17.50;54.60;;;;;;5071079;28;20179;-76
2022/06/30 03:59:33;;;;;;;3.70;1.47;;;17.50;54.40;;;;;;5064002;28;20604;-75
2022/06/30 04:02:00;;;;;;;4.23;1.40;;;17.50;54.90;;;;;;5078210;28;20270;-75
2022/06/30 04:04:28;;;;;;;5.90;1.23;;;17.60;54.20;;;;;;5067398;28;20190;-76
2022/06/30 04:06:55;;;;;;;3.23;1.13;;;17.80;54.30;;;;;;5067209;28;20172;-75
2022/06/30 04:09:23;;;;;;;7.27;1.40;;;17.80;53.70;;;;;;5069769;28;20582;-76
2022/06/30 04:11:50;;;;;;;3.40;1.23;;;17.80;53.10;;;;;;5070498;28;20671;-76
2022/06/30 04:14:18;;;;;;;6.43;1.97;;;17.80;52.40;;;;;;5069144;28;20197;-76
2022/06/30 04:16:45;;;;;;;5.60;1.30;;;17.80;52.30;;;;;;5070378;28;20566;-77
2022/06/30 04:19:12;;;;;;;5.27;1.93;;;17.80;52.10;;;;;;5071873;28;20229;-76
2022/06/30 04:21:40;;;;;;;8.10;1.50;;;17.80;51.10;;;;;;5074263;28;20183;-77
2022/06/30 04:24:07;;;;;;;2.17;1.10;;;17.80;51.20;;;;;;5071323;28;20244;-75
2022/06/30 04:26:35;;;;;;;3.60;1.30;;;17.70;50.30;;;;;;5071922;28;20796;-77
2022/06/30 04:29:02;;;;;;;1.83;1.23;;;17.70;50.10;;;;;;5074447;28;20267;-76
2022/06/30 04:34:15;;;;;;;4.17;1.20;;;17.40;50.30;;;;;;5068372;28;20202;-75
2022/06/30 04:36:43;;;;;;;2.93;1.40;;;17.30;49.80;;;;;;5073530;28;20191;-75
2022/06/30 04:39:10;;;;;;;6.07;1.40;;;17.20;50.10;;;;;;5071296;28;20218;-76
2022/06/30 04:41:38;;;;;;;3.67;1.40;;;17.10;50.30;;;;;;5072878;28;20182;-75
2022/06/30 04:44:05;;;;;;;2.57;1.10;;;17.20;50.10;;;;;;5070449;28;20350;-74
2022/06/30 04:46:33;;;;;;;6.63;1.23;;;17.20;50.10;;;;;;5069627;28;20206;-74
2022/06/30 04:49:00;;;;;;;2.40;1.50;;;17.10;51.00;;;;;;5071867;28;20533;-75
2022/06/30 04:51:28;;;;;;;7.90;1.30;;;17.00;49.40;;;;;;5071349;28;20273;-76
2022/06/30 04:53:55;;;;;;;2.17;1.27;;;17.00;47.80;;;;;;5078369;28;20190;-76
2022/06/30 04:56:22;;;;;;;2.73;1.47;;;17.00;49.50;;;;;;5069254;28;20225;-76
2022/06/30 04:58:50;;;;;;;5.67;1.43;;;17.00;50.60;;;;;;5073192;28;20206;-75
2022/06/30 05:01:17;;;;;;;2.90;1.20;;;16.90;51.30;;;;;;5073299;28;20184;-76
2022/06/30 05:03:45;;;;;;;3.60;1.37;;;17.00;51.20;;;;;;5075899;28;20278;-75
2022/06/30 05:06:12;;;;;;;4.90;1.43;;;16.90;51.20;;;;;;5075394;28;20222;-74
2022/06/30 05:08:40;;;;;;;3.13;1.10;;;16.80;51.10;;;;;;5067561;28;20640;-75
2022/06/30 05:11:07;;;;;;;3.33;1.30;;;16.80;50.90;;;;;;5067501;28;20189;-77
2022/06/30 05:13:35;;;;;;;2.23;1.10;;;16.80;52.10;;;;;;5071849;28;20183;-74
2022/06/30 05:16:03;;;;;;;2.17;1.10;;;16.80;51.90;;;;;;5071944;28;20179;-76
2022/06/30 05:18:31;;;;;;;5.47;1.70;;;16.80;52.00;;;;;;5068901;28;20203;-75
2022/06/30 05:20:58;;;;;;;2.43;1.40;;;16.80;52.20;;;;;;5053367;28;20179;-75
2022/06/30 05:23:26;;;;;;;2.80;1.60;;;16.80;52.10;;;;;;5076724;28;20188;-75
2022/06/30 05:28:39;;;;;;;2.37;1.13;;;16.80;51.80;;;;;;5073974;28;20498;-77
2022/06/30 05:31:06;;;;;;;2.57;1.00;;;16.80;51.50;;;;;;5065387;28;20531;-84
2022/06/30 05:33:37;;;;;;;5.57;1.20;;;16.80;51.70;;;;;;5068005;28;20256;-82
2022/06/30 05:36:04;;;;;;;1.53;1.17;;;16.80;51.90;;;;;;5063547;28;20629;-84
2022/06/30 05:38:32;;;;;;;2.40;1.20;;;16.70;51.70;;;;;;5071004;28;20562;-80
2022/06/30 05:41:00;;;;;;;6.50;1.20;;;16.90;51.10;;;;;;5071443;28;20268;-79
2022/06/30 05:43:27;;;;;;;2.70;1.00;;;16.80;51.30;;;;;;5082893;28;20187;-83
2022/06/30 05:45:55;;;;;;;2.80;1.23;;;16.70;51.00;;;;;;5073518;28;20638;-80
2022/06/30 05:48:22;;;;;;;4.90;1.23;;;16.50;50.40;;;;;;5063748;28;20196;-79
2022/06/30 05:50:50;;;;;;;3.53;1.03;;;16.40;50.20;;;;;;5066737;28;20183;-81
2022/06/30 05:53:17;;;;;;;2.60;1.23;;;16.30;49.80;;;;;;5074015;28;20185;-76
2022/06/30 05:55:45;;;;;;;2.47;1.10;;;16.30;50.00;;;;;;5063257;28;20179;-80
2022/06/30 05:58:16;;;;;;;7.50;1.30;;;16.30;50.00;;;;;;5070923;28;20668;-79
2022/06/30 06:00:43;;;;;;;1.53;0.97;;;16.30;49.60;;;;;;5059094;28;20698;-78
2022/06/30 06:03:11;;;;;;;4.27;1.33;;;16.20;48.20;;;;;;5067142;28;20538;-78
2022/06/30 06:05:38;;;;;;;2.20;1.30;;;16.20;47.70;;;;;;5061060;28;20189;-77
2022/06/30 06:08:08;;;;;;;2.43;1.40;;;16.10;48.00;;;;;;5068409;28;20270;-77
2022/06/30 06:10:35;;;;;;;2.60;1.50;;;16.10;48.60;;;;;;5079372;28;20221;-78
2022/06/30 06:13:04;;;;;;;4.43;1.90;;;16.00;48.40;;;;;;5064794;28;20195;-79
2022/06/30 06:15:32;;;;;;;4.77;2.00;;;16.00;48.10;;;;;;5065335;28;20663;-77
2022/06/30 06:18:00;;;;;;;4.03;1.73;;;15.90;48.20;;;;;;5066472;28;20600;-79
2022/06/30 06:20:27;;;;;;;4.77;1.90;;;15.80;48.20;;;;;;5073480;28;20712;-77
2022/06/30 06:22:54;;;;;;;2.40;1.20;;;15.80;48.70;;;;;;5078658;28;20181;-78
2022/06/30 06:25:22;;;;;;;4.13;1.37;;;15.80;48.70;;;;;;5066679;28;20258;-77
2022/06/30 06:30:36;;;;;;;3.77;1.40;;;15.70;48.30;;;;;;5070447;28;20190;-77
2022/06/30 06:33:04;;;;;;;2.40;1.37;;;15.60;48.70;;;;;;5084481;28;20182;-77
2022/06/30 06:35:31;;;;;;;3.07;1.73;;;15.50;49.30;;;;;;5061368;28;20634;-76
2022/06/30 06:37:58;;;;;;;4.50;1.83;;;15.50;49.40;;;;;;5067299;28;20189;-76
2022/06/30 06:40:26;;;;;;;3.90;1.77;;;15.40;49.50;;;;;;5059443;28;20174;-77
2022/06/30 06:42:53;;;;;;;4.90;1.63;;;15.30;50.00;;;;;;5072933;28;20516;-76
2022/06/30 06:45:21;;;;;;;2.53;1.37;;;15.30;49.70;;;;;;5057718;28;20184;-77
2022/06/30 06:47:49;;;;;;;2.60;1.90;;;15.20;50.20;;;;;;5065530;28;20239;-75
2022/06/30 06:50:16;;;;;;;3.40;1.50;;;15.20;49.80;;;;;;5060250;28;20214;-74
2022/06/30 06:52:44;;;;;;;6.83;2.43;;;15.20;50.80;;;;;;5068772;28;20244;-76
2022/06/30 06:55:11;;;;;;;5.17;2.10;;;15.10;50.30;;;;;;5067654;28;20515;-75
2022/06/30 06:57:40;;;;;;;3.83;2.03;;;15.10;50.70;;;;;;5057023;28;20533;-75
2022/06/30 07:00:09;;;;;;;5.80;1.90;;;15.10;50.90;;;;;;5071770;28;20561;-75
2022/06/30 07:02:37;;;;;;;3.50;2.10;;;14.90;51.60;;;;;;5055768;28;20524;-75
2022/06/30 07:05:06;;;;;;;5.97;1.80;;;14.90;51.60;;;;;;5074645;28;20187;-76
2022/06/30 07:07:33;;;;;;;7.27;2.10;;;14.90;51.70;;;;;;5075317;28;20175;-76
2022/06/30 07:10:01;;;;;;;3.50;1.60;;;14.90;51.60;;;;;;5065048;28;20175;-76
2022/06/30 07:12:28;;;;;;;5.80;2.00;;;14.90;51.90;;;;;;5061821;28;20187;-75
2022/06/30 07:14:56;;;;;;;5.57;1.50;;;14.80;52.10;;;;;;5070869;28;20179;-75
2022/06/30 07:17:23;;;;;;;6.33;2.33;;;14.80;52.30;;;;;;5070834;28;20593;-77
2022/06/30 07:19:50;;;;;;;3.73;2.30;;;14.80;52.20;;;;;;5066308;28;20313;-75
2022/06/30 07:22:18;;;;;;;6.67;2.70;;;14.80;52.70;;;;;;5061392;28;20188;-77
2022/06/30 07:24:45;;;;;;;8.13;3.00;;;14.80;53.10;;;;;;5058978;28;20682;-75
2022/06/30 07:27:13;;;;;;;3.90;2.13;;;14.70;53.40;;;;;;5061601;28;20274;-74
2022/06/30 07:29:41;;;;;;;4.83;2.80;;;14.70;53.20;;;;;;5051000;28;20199;-76
2022/06/30 07:32:09;;;;;;;8.57;3.17;;;14.70;53.10;;;;;;5055459;28;20168;-76
2022/06/30 07:34:36;;;;;;;6.63;2.80;;;14.70;53.00;;;;;;5066690;28;20244;-78
2022/06/30 07:37:04;;;;;;;5.57;2.20;;;14.80;53.00;;;;;;5053892;28;20176;-76
2022/06/30 07:39:31;;;;;;;5.27;2.07;;;14.70;53.30;;;;;;5050783;28;20209;-77
2022/06/30 07:41:59;;;;;;;3.87;2.10;;;14.70;53.80;;;;;;5067146;28;20180;-76
2022/06/30 07:44:26;;;;;;;2.93;1.67;;;14.70;53.80;;;;;;5070879;28;20202;-77
2022/06/30 07:46:54;;;;;;;1.73;1.40;;;14.70;53.40;;;;;;5058165;28;20194;-79
2022/06/30 07:49:22;;;;;;;5.30;1.30;;;14.70;53.20;;;;;;5062460;28;20696;-79
2022/06/30 07:51:49;;;;;;;2.00;1.33;;;14.70;52.90;;;;;;5053644;28;20302;-77
2022/06/30 07:54:16;;;;;;;3.37;1.60;;;14.80;52.80;;;;;;5051316;28;20172;-76
2022/06/30 07:56:44;;;;;;;1.73;1.40;;;14.70;52.40;;;;;;5051469;28;20175;-77
2022/06/30 07:59:13;;;;;;;3.40;1.70;;;14.70;51.90;;;;;;5053651;28;20327;-79
2022/06/30 08:01:40;;;;;;;2.83;1.47;;;14.80;51.80;;;;;;5062793;28;20183;-78
2022/06/30 08:04:08;;;;;;;2.23;1.40;;;14.80;51.50;;;;;;5051606;28;20266;-79
2022/06/30 08:06:36;;;;;;;4.37;2.07;;;14.80;52.00;;;;;;5051671;28;20622;-75
2022/06/30 08:09:03;;;;;;;3.60;2.10;;;14.80;52.20;;;;;;5051897;28;20241;-78
2022/06/30 08:11:31;;;;;;;6.67;2.13;;;14.70;52.20;;;;;;5052044;28;20211;-77
2022/06/30 08:13:59;;;;;;;3.83;2.00;;;14.70;52.60;;;;;;5063843;28;20266;-77
2022/06/30 08:16:27;;;;;;;3.27;1.93;;;14.60;52.40;;;;;;5052742;28;20183;-77
2022/06/30 08:18:54;;;;;;;2.93;2.13;;;14.50;53.40;;;;;;5055186;28;20230;-76
2022/06/30 08:21:22;;;;;;;3.53;2.00;;;14.40;54.70;;;;;;5051846;28;20511;-76
2022/06/30 08:23:49;;;;;;;5.03;3.00;;;14.30;55.40;;;;;;5060782;28;20184;-76
2022/06/30 08:26:17;;;;;;;8.20;3.37;;;14.30;55.80;;;;;;5050883;28;20314;-75
2022/06/30 08:28:44;;;;;;;7.77;3.20;;;14.30;55.30;;;;;;5050900;28;20184;-74
2022/06/30 08:31:12;;;;;;;5.70;3.00;;;14.30;56.20;;;;;;5050623;28;20180;-75
2022/06/30 08:33:39;;;;;;;4.47;2.80;;;14.20;55.90;;;;;;5059058;28;20179;-75
2022/06/30 08:36:08;;;;;;;7.50;3.50;;;14.20;55.10;;;;;;5051445;28;20258;-74
2022/06/30 08:38:35;;;;;;;10.30;3.10;;;14.20;55.90;;;;;;5063449;28;20207;-75
2022/06/30 08:43:49;;;;;;;6.40;3.83;;;14.10;58.10;;;;;;5051077;28;20179;-79
2022/06/30 08:46:18;;;;;;;6.43;4.03;;;14.00;59.00;;;;;;5051562;28;20184;-76
2022/06/30 08:48:46;;;;;;;7.20;3.60;;;14.00;58.70;;;;;;5050549;28;20168;-76
2022/06/30 08:51:15;;;;;;;7.93;3.97;;;14.00;58.80;;;;;;5050730;28;20182;-77
2022/06/30 08:53:47;;;;;;;8.10;4.23;;;14.00;58.90;;;;;;5052470;28;20208;-76
2022/06/30 08:56:14;;;;;;;7.63;3.53;;;14.00;58.80;;;;;;5051781;28;20270;-76
2022/06/30 08:58:44;;;;;;;7.70;4.23;;;14.00;58.80;;;;;;5050994;28;20210;-76
2022/06/30 09:01:11;;;;;;;6.17;3.80;;;13.90;58.40;;;;;;5065834;28;20535;-75
2022/06/30 09:03:40;;;;;;;8.47;4.00;;;13.90;58.80;;;;;;5051837;28;20205;-78
2022/06/30 09:06:07;;;;;;;7.27;4.13;;;13.90;59.20;;;;;;5050590;28;20181;-75
2022/06/30 09:08:34;;;;;;;9.70;5.00;;;13.90;59.00;;;;;;5055425;28;20176;-77
2022/06/30 09:11:04;;;;;;;8.93;4.97;;;13.80;59.30;;;;;;5055332;28;20214;-75
2022/06/30 09:13:51;;;;;;;8.93;5.30;;;13.80;59.60;;;;;;5054840;28;20705;-74
2022/06/30 09:16:18;;;;;;;10.20;5.97;;;13.80;59.80;;;;;;5067715;28;20190;-75
2022/06/30 09:18:46;;;;;;;15.53;6.80;;;13.80;60.00;;;;;;5056834;28;20192;-76
2022/06/30 09:21:17;;;;;;;10.13;5.77;;;13.80;59.80;;;;;;5056652;28;20197;-75
2022/06/30 09:23:47;;;;;;;9.10;5.47;;;13.80;60.30;;;;;;5062909;28;20183;-75
2022/06/30 09:26:22;;;;;;;10.13;5.20;;;13.70;59.60;;;;;;5065156;28;20629;-76
2022/06/30 09:28:54;;;;;;;8.43;4.67;;;13.80;59.50;;;;;;5060654;28;20192;-75
2022/06/30 09:31:39;;;;;;;6.27;3.93;;;13.80;59.30;;;;;;5054604;28;20263;-76
2022/06/30 09:34:22;;;;;;;8.53;5.23;;;13.80;59.10;;;;;;5073179;28;20182;-75
2022/06/30 09:36:53;;;;;;;7.23;4.40;;;13.80;59.40;;;;;;5061515;28;20207;-75
2022/06/30 09:39:22;;;;;;;9.87;4.20;;;13.70;59.70;;;;;;5064324;28;20211;-75
2022/06/30 09:41:51;;;;;;;4.97;3.63;;;13.70;59.70;;;;;;5062680;28;20191;-75
2022/06/30 09:44:25;;;;;;;9.70;4.17;;;13.70;59.80;;;;;;5061628;28;20187;-75
2022/06/30 09:46:59;;;;;;;7.37;4.43;;;13.70;60.10;;;;;;5055008;28;20190;-75
2022/06/30 09:49:36;;;;;;;12.70;4.70;;;13.70;60.40;;;;;;5063250;28;20187;-74
2022/06/30 09:52:16;;;;;;;6.63;3.80;;;13.70;60.50;;;;;;5061674;28;20186;-75
2022/06/30 09:54:56;;;;;;;6.00;3.70;;;13.70;60.30;;;;;;5065666;28;20179;-74
2022/06/30 09:57:26;;;;;;;6.70;4.10;;;13.70;60.70;;;;;;5054636;28;20210;-76
2022/06/30 10:00:14;;;;;;;8.80;4.73;;;13.70;61.20;;;;;;5066842;28;20270;-75
2022/06/30 10:02:47;;;;;;;8.17;4.97;;;13.60;62.30;;;;;;5061570;28;20571;-74
2022/06/30 10:05:16;;;;;;;7.57;5.03;;;13.60;63.00;;;;;;5073151;28;20186;-75
2022/06/30 10:07:45;;;;;;;9.63;5.13;;;13.50;63.10;;;;;;5060328;28;20216;-74
2022/06/30 10:10:15;;;;;;;8.27;5.00;;;13.40;63.60;;;;;;5069871;28;20551;-74
2022/06/30 10:12:45;;;;;;;12.10;5.57;;;13.40;64.40;;;;;;5064669;28;20191;-75
2022/06/30 10:15:17;;;;;;;5.93;4.10;;;13.40;64.20;;;;;;5072516;28;20183;-78
2022/06/30 10:17:47;;;;;;;9.23;5.37;;;13.40;64.40;;;;;;5062871;28;20207;-79
2022/06/30 10:20:15;;;;;;;6.83;4.00;;;13.30;64.70;;;;;;5064344;28;20260;-79
2022/06/30 10:22:43;;;;;;;6.90;3.90;;;13.40;64.80;;;;;;5067041;28;20278;-78
2022/06/30 10:25:10;;;;;;;6.97;3.93;;;13.40;65.00;;;;;;5057017;28;20183;-80
2022/06/30 10:27:38;;;;;;;6.30;3.83;;;13.50;65.10;;;;;;5060747;28;20760;-79
2022/06/30 10:30:09;;;;;;;7.13;3.83;;;13.50;65.10;;;;;;5058090;28;20175;-80
2022/06/30 10:33:04;;;;;;;5.73;4.33;;;13.50;65.00;;;;;;5061847;28;20326;-80
2022/06/30 10:35:46;;;;;;;6.83;5.00;;;13.50;64.70;;;;;;5059399;28;20191;-80
2022/06/30 10:38:34;;;;;;;8.30;4.57;;;13.50;64.60;;;;;;5056350;28;20204;-78
2022/06/30 10:41:12;;;;;;;11.33;5.00;;;13.50;64.60;;;;;;5060866;28;20538;-80
2022/06/30 10:44:03;;;;;;;6.47;4.10;;;13.50;64.70;;;;;;5054052;28;20167;-79
2022/06/30 10:46:32;;;;;;;7.47;4.90;;;13.50;65.30;;;;;;5066537;28;20273;-80
2022/06/30 10:49:00;;;;;;;14.20;4.77;;;13.50;65.30;;;;;;5067567;28;20165;-76
2022/06/30 10:51:28;;;;;;;10.73;5.17;;;13.50;65.20;;;;;;5054803;28;20190;-79
2022/06/30 10:53:58;;;;;;;7.87;5.00;;;13.50;65.10;;;;;;5067860;28;20211;-80
2022/06/30 10:56:52;;;;;;;8.77;4.40;;;13.40;65.40;;;;;;5064540;28;20226;-78
2022/06/30 10:59:31;;;;;;;8.70;4.57;;;13.40;65.50;;;;;;5059259;28;20697;-79
2022/06/30 11:02:16;;;;;;;9.03;4.73;;;13.50;65.80;;;;;;5076767;28;20202;-75
2022/06/30 11:04:45;;;;;;;7.67;4.03;;;13.50;66.10;;;;;;5067339;28;20196;-77
2022/06/30 11:07:14;;;;;;;7.90;3.73;;;13.40;66.20;;;;;;5065664;28;20183;-81
2022/06/30 11:09:47;;;;;;;5.37;3.53;;;13.50;66.20;;;;;;5052384;28;20184;-77
2022/06/30 11:12:23;;;;;;;5.20;3.07;;;13.50;66.40;;;;;;5064133;28;20187;-78
2022/06/30 11:14:55;;;;;;;5.17;2.73;;;13.50;66.40;;;;;;5056179;28;20182;-80
2022/06/30 11:17:37;;;;;;;7.67;3.00;;;13.60;66.70;;;;;;5058921;28;20191;-75
2022/06/30 11:20:08;;;;;;;8.27;3.93;;;13.60;66.70;;;;;;5054426;28;20650;-80
2022/06/30 11:22:36;;;;;;;7.73;4.17;;;13.50;67.60;;;;;;5070253;28;20179;-77
2022/06/30 11:25:09;;;;;;;9.30;4.07;;;13.50;67.20;;;;;;5052353;28;20199;-79
2022/06/30 11:27:39;;;;;;;4.60;3.53;;;13.50;67.60;;;;;;5052459;28;20308;-80
2022/06/30 11:30:10;;;;;;;9.00;4.87;;;13.40;67.60;;;;;;5052310;28;20180;-78
2022/06/30 11:32:38;;;;;;;7.40;4.57;;;13.40;67.90;;;;;;5059447;28;20184;-77
2022/06/30 11:35:07;;;;;;;9.63;4.97;;;13.30;68.50;;;;;;5061576;28;20179;-79
2022/06/30 11:37:35;;;;;;;9.93;4.33;;;13.30;69.10;;;;;;5052662;28;20180;-80
2022/06/30 11:40:04;;;;;;;11.47;4.10;;;13.30;68.90;;;;;;5052378;28;20215;-77
2022/06/30 11:42:32;;;;;;;9.20;4.50;;;13.20;69.40;;;;;;5052117;28;20231;-78
2022/06/30 11:44:59;;;;;;;7.77;4.50;;;13.00;69.10;;;;;;5063098;28;20721;-79
2022/06/30 11:47:31;;;;;;;9.63;4.13;;;13.00;69.60;;;;;;5052389;28;20179;-78
2022/06/30 11:50:00;;;;;;;7.93;4.87;;;13.00;70.30;;;;;;5053103;28;20180;-75
2022/06/30 11:52:37;;;;;;;6.83;4.40;;;12.90;70.40;;;;;;5058708;28;20184;-76
2022/06/30 11:55:17;;;;;;;9.07;5.13;;;12.90;70.50;;;;;;5052350;28;20179;-75
2022/06/30 11:57:47;;;;;;;11.67;6.13;;;12.90;70.70;;;;;;5052502;28;20163;-76
2022/06/30 12:00:23;;;;;;;9.77;5.00;;;12.80;70.40;;;;;;5063189;28;20610;-75
2022/06/30 12:02:52;;;;;;;7.43;5.30;;;12.80;70.90;;;;;;5053722;28;20199;-76
2022/06/30 12:05:22;;;;;;;8.23;5.20;;;12.80;71.40;;;;;;5052540;28;20187;-75
2022/06/30 12:07:50;;;;;;;11.27;5.67;;;12.80;71.50;;;;;;5052334;28;20195;-75
2022/06/30 12:10:22;;;;;;;8.57;5.20;;;12.80;71.90;;;;;;5066829;28;20183;-76
2022/06/30 12:12:49;;;;;;;6.63;4.67;;;12.70;71.90;;;;;;5061120;28;20202;-74
2022/06/30 12:15:18;;;;;;;9.10;4.97;;;12.70;72.10;;;;;;5065377;28;20183;-75
2022/06/30 12:17:52;;;;;;;9.50;6.10;;;12.80;72.10;;;;;;5052412;28;20171;-74
2022/06/30 12:20:21;;;;;;;10.60;4.73;;;12.70;71.90;;;;;;5056879;28;20261;-76
2022/06/30 12:22:51;;;;;;;6.77;5.10;;;12.70;71.80;;;;;;5058707;28;20267;-75
2022/06/30 12:25:20;;;;;;;7.83;5.00;;;12.70;72.00;;;;;;5056167;28;20199;-75
2022/06/30 12:27:52;;;;;;;6.93;5.43;;;12.70;72.10;;;;;;5057498;28;20234;-74
2022/06/30 12:30:24;;;;;;;7.80;5.13;;;12.60;71.90;;;;;;5058490;28;20260;-75
2022/06/30 12:32:55;;;;;;;8.53;4.97;;;12.60;72.20;;;;;;5072176;28;20564;-74
2022/06/30 12:35:25;;;;;;;13.97;4.70;;;12.60;72.40;;;;;;5059870;28;20191;-75
2022/06/30 12:37:53;;;;;;;9.93;4.70;;;12.60;72.10;;;;;;5051750;28;20188;-74
2022/06/30 12:40:26;;;;;;;6.60;4.23;;;12.60;71.70;;;;;;5062748;28;20219;-74
2022/06/30 12:42:55;;;;;;;11.33;4.10;;;12.50;71.50;;;;;;5057891;28;20183;-75
2022/06/30 12:45:55;;;;;;;6.37;4.10;;;12.50;71.70;;;;;;5054973;28;20697;-75
2022/06/30 12:48:49;;;;;;;7.13;4.03;;;12.40;71.80;;;;;;5055285;28;20660;-75
2022/06/30 12:51:32;;;;;;;8.80;3.80;;;12.50;72.30;;;;;;5060376;28;20258;-75
2022/06/30 12:54:03;;;;;;;8.00;4.00;;;12.50;72.40;;;;;;5064421;28;20206;-77
2022/06/30 12:56:31;;;;;;;7.57;3.80;;;12.50;72.50;;;;;;5055215;28;20222;-78
2022/06/30 12:59:03;;;;;;;5.97;3.60;;;12.50;72.40;;;;;;5061134;28;21983;-77
2022/06/30 13:01:38;;;;;;;11.10;3.93;;;12.50;72.50;;;;;;5062290;28;20262;-75
2022/06/30 13:04:28;;;;;;;6.73;4.13;;;12.40;71.80;;;;;;5075065;28;20179;-75
2022/06/30 13:06:57;;;;;;;5.93;3.43;;;12.40;72.10;;;;;;5055096;28;20168;-74
2022/06/30 13:09:27;;;;;;;6.43;3.77;;;12.40;71.90;;;;;;5055534;28;20183;-75
2022/06/30 13:11:57;;;;;;;9.20;4.10;;;12.40;72.20;;;;;;5055409;28;20178;-75
2022/06/30 13:14:27;;;;;;;6.13;3.70;;;12.40;72.40;;;;;;5064364;28;20175;-75
2022/06/30 13:16:55;;;;;;;9.20;3.20;;;12.40;72.10;;;;;;5056980;28;20216;-74
2022/06/30 13:19:24;;;;;;;6.00;3.43;;;12.40;72.20;;;;;;5053490;28;20232;-74